createdAt,value
2019-05-06T00:00:24.725Z,14.83
2019-05-06T00:02:54.242Z,8.88
2019-05-06T00:05:21.388Z,12.30
2019-05-06T00:07:51.504Z,7.53
2019-05-06T00:10:24.670Z,13.28
2019-05-06T00:12:53.560Z,13.80
2019-05-06T00:15:21.052Z,9.75
2019-05-06T00:17:48.264Z,8.90
2019-05-06T00:20:15.610Z,12.80
2019-05-06T00:22:43.602Z,9.35
2019-05-06T00:25:16.871Z,8.58
2019-05-06T00:28:04.139Z,8.60
2019-05-06T00:30:31.520Z,9.38
2019-05-06T00:32:58.763Z,11.30
2019-05-06T00:35:26.067Z,9.48
2019-05-06T00:37:53.680Z,7.97
2019-05-06T00:40:28.880Z,12.05
2019-05-06T00:43:00.042Z,11.08
2019-05-06T00:45:27.353Z,12.45
2019-05-06T00:47:54.711Z,12.00
2019-05-06T00:50:23.888Z,8.48
2019-05-06T00:52:53.930Z,12.73
2019-05-06T00:55:21.406Z,11.55
2019-05-06T00:57:48.746Z,10.53
2019-05-06T01:00:19.163Z,12.00
2019-05-06T01:02:46.493Z,10.35
2019-05-06T01:05:14.098Z,12.68
2019-05-06T01:07:43.838Z,9.40
2019-05-06T01:10:14.281Z,11.70
2019-05-06T01:12:44.695Z,12.55
2019-05-06T01:15:16.642Z,12.75
2019-05-06T01:17:44.392Z,10.82
2019-05-06T01:20:13.862Z,12.73
2019-05-06T01:22:43.516Z,14.18
2019-05-06T01:25:10.892Z,14.50
2019-05-06T01:27:38.280Z,12.43
2019-05-06T01:30:07.492Z,17.82
2019-05-06T01:32:34.715Z,15.13
2019-05-06T01:35:02.076Z,11.30
2019-05-06T01:37:29.753Z,11.55
2019-05-06T01:40:08.218Z,11.40
2019-05-06T01:42:45.336Z,14.38
2019-05-06T01:45:14.166Z,14.10
2019-05-06T01:47:43.683Z,11.50
2019-05-06T01:50:10.950Z,11.70
2019-05-06T01:52:38.330Z,12.60
2019-05-06T01:55:05.875Z,12.78
2019-05-06T01:57:33.753Z,15.72
2019-05-06T02:00:01.300Z,11.93
2019-05-06T02:02:28.669Z,12.73
2019-05-06T02:04:55.924Z,13.53
2019-05-06T02:07:24.130Z,13.60
2019-05-06T02:09:53.669Z,15.25
2019-05-06T02:12:20.936Z,16.45
2019-05-06T02:14:48.186Z,15.80
2019-05-06T02:17:15.476Z,18.17
2019-05-06T02:19:43.801Z,15.35
2019-05-06T02:22:31.122Z,14.30
2019-05-06T02:25:06.530Z,10.50
2019-05-06T02:27:34.173Z,12.73
2019-05-06T02:30:39.436Z,13.25
2019-05-06T02:33:26.343Z,15.75
2019-05-06T02:35:58.239Z,16.65
2019-05-06T02:38:35.549Z,11.28
2019-05-06T02:40:56.568Z,15.28
2019-05-06T02:43:25.103Z,20.72
2019-05-06T02:45:53.122Z,11.75
2019-05-06T02:48:43.052Z,13.50
2019-05-06T02:51:13.324Z,9.90
2019-05-06T02:53:42.903Z,10.05
2019-05-06T02:56:13.220Z,13.95
2019-05-06T02:58:39.490Z,13.83
2019-05-06T03:01:06.843Z,14.87
2019-05-06T03:03:34.225Z,17.05
2019-05-06T03:06:03.802Z,16.85
2019-05-06T03:08:32.828Z,20.90
2019-05-06T03:11:00.224Z,16.67
2019-05-06T03:13:27.545Z,17.60
2019-05-06T03:15:54.818Z,15.38
2019-05-06T03:18:23.599Z,15.00
2019-05-06T03:21:05.325Z,14.00
2019-05-06T03:23:35.230Z,21.35
2019-05-06T03:26:03.787Z,17.40
2019-05-06T03:28:33.380Z,19.32
2019-05-06T03:31:06.046Z,17.62
2019-05-06T03:33:46.828Z,16.70
2019-05-06T03:36:13.766Z,15.50
2019-05-06T03:38:28.515Z,20.43
2019-05-06T03:40:55.867Z,15.88
2019-05-06T03:43:23.438Z,14.87
2019-05-06T03:46:08.887Z,19.32
2019-05-06T03:48:38.767Z,16.40
2019-05-06T03:51:05.999Z,17.60
2019-05-06T03:53:34.747Z,17.77
2019-05-06T03:56:03.351Z,16.15
2019-05-06T03:58:34.578Z,20.05
2019-05-06T04:01:03.757Z,19.12
2019-05-06T04:03:43.968Z,18.05
2019-05-06T04:06:04.201Z,16.12
2019-05-06T04:08:33.864Z,19.98
2019-05-06T04:11:02.934Z,16.73
2019-05-06T04:13:32.984Z,19.10
2019-05-06T04:16:19.396Z,17.55
2019-05-06T04:18:53.761Z,19.57
2019-05-06T04:21:27.725Z,18.30
2019-05-06T04:24:04.153Z,19.75
2019-05-06T04:27:03.738Z,15.90
2019-05-06T04:29:35.226Z,20.77
2019-05-06T04:32:03.478Z,15.85
2019-05-06T04:34:33.159Z,21.12
2019-05-06T04:36:59.669Z,20.12
2019-05-06T04:39:27.334Z,21.85
2019-05-06T04:41:54.643Z,16.62
2019-05-06T04:44:23.714Z,19.82
2019-05-06T04:46:54.061Z,16.20
2019-05-06T04:49:23.520Z,15.63
2019-05-06T04:51:50.166Z,15.35
2019-05-06T04:54:17.492Z,17.07
2019-05-06T04:56:45.117Z,15.85
2019-05-06T04:59:13.955Z,17.80
2019-05-06T05:01:41.598Z,16.73
2019-05-06T05:04:22.719Z,21.30
2019-05-06T05:06:38.546Z,18.75
2019-05-06T05:09:06.545Z,18.92
2019-05-06T05:11:53.312Z,19.35
2019-05-06T05:14:28.938Z,15.45
2019-05-06T05:17:12.853Z,20.02
2019-05-06T05:19:42.797Z,14.23
2019-05-06T05:22:12.392Z,18.48
2019-05-06T05:24:39.776Z,17.10
2019-05-06T05:27:07.175Z,19.40
2019-05-06T05:29:34.566Z,15.10
2019-05-06T05:32:02.249Z,16.67
2019-05-06T05:34:39.521Z,16.27
2019-05-06T05:36:58.836Z,19.93
2019-05-06T05:39:26.203Z,19.07
2019-05-06T05:41:55.341Z,23.38
2019-05-06T05:44:28.906Z,17.07
2019-05-06T05:46:56.240Z,22.07
2019-05-06T05:49:32.474Z,19.95
2019-05-06T05:52:00.045Z,20.77
2019-05-06T05:54:27.363Z,24.53
2019-05-06T05:56:54.857Z,22.50
2019-05-06T05:59:23.145Z,27.20
2019-05-06T06:01:52.890Z,17.40
2019-05-06T06:04:22.338Z,18.63
2019-05-06T06:06:51.841Z,19.37
2019-05-06T06:09:22.285Z,22.97
2019-05-06T06:11:53.207Z,22.67
2019-05-06T06:14:55.287Z,24.43
2019-05-06T06:17:42.576Z,18.57
2019-05-06T06:20:28.310Z,18.97
2019-05-06T06:22:58.551Z,25.53
2019-05-06T06:25:25.922Z,17.90
2019-05-06T06:27:53.261Z,20.83
2019-05-06T06:30:28.737Z,19.53
2019-05-06T06:32:56.076Z,17.80
2019-05-06T06:35:29.222Z,20.13
2019-05-06T06:38:04.955Z,21.60
2019-05-06T06:40:33.037Z,13.10
2019-05-06T06:43:04.623Z,18.13
2019-05-06T06:45:32.717Z,20.27
2019-05-06T06:48:00.253Z,19.13
2019-05-06T06:50:28.194Z,20.77
2019-05-06T06:52:55.545Z,17.43
2019-05-06T06:55:22.917Z,20.80
2019-05-06T06:58:12.112Z,19.33
2019-05-06T07:00:57.145Z,21.90
2019-05-06T07:03:29.820Z,17.20
2019-05-06T07:06:02.370Z,20.87
2019-05-06T07:08:34.888Z,21.87
2019-05-06T07:10:59.108Z,22.90
2019-05-06T07:13:26.469Z,21.80
2019-05-06T07:15:53.816Z,18.50
2019-05-06T07:18:22.611Z,22.73
2019-05-06T07:20:57.891Z,21.67
2019-05-06T07:23:26.349Z,23.43
2019-05-06T07:25:54.068Z,19.10
2019-05-06T07:28:22.779Z,20.17
2019-05-06T07:30:52.107Z,23.27
2019-05-06T07:33:19.481Z,17.57
2019-05-06T07:35:46.866Z,18.80
2019-05-06T07:38:14.203Z,20.47
2019-05-06T07:40:43.060Z,18.57
2019-05-06T07:43:48.087Z,18.60
2019-05-06T07:46:25.480Z,19.23
2019-05-06T07:48:52.716Z,21.07
2019-05-06T07:51:20.040Z,20.23
2019-05-06T07:53:47.261Z,18.83
2019-05-06T07:56:14.534Z,17.60
2019-05-06T07:58:43.426Z,17.33
2019-05-06T08:01:13.285Z,21.00
2019-05-06T08:03:42.615Z,22.57
2019-05-06T08:06:09.543Z,20.53
2019-05-06T08:08:36.866Z,16.70
2019-05-06T08:11:04.243Z,19.13
2019-05-06T08:13:32.236Z,15.73
2019-05-06T08:16:02.026Z,17.30
2019-05-06T08:18:29.069Z,13.93
2019-05-06T08:20:57.967Z,21.27
2019-05-06T08:23:37.254Z,17.87
2019-05-06T08:26:12.170Z,15.70
2019-05-06T08:28:41.076Z,17.00
2019-05-06T08:31:03.062Z,19.17
2019-05-06T08:33:32.577Z,15.77
2019-05-06T08:36:10.548Z,17.00
2019-05-06T08:38:49.945Z,16.27
2019-05-06T08:41:17.233Z,14.07
2019-05-06T08:43:44.676Z,14.47
2019-05-06T08:46:12.562Z,14.47
2019-05-06T08:48:40.030Z,16.37
2019-05-06T08:51:13.120Z,15.00
2019-05-06T08:53:52.887Z,13.63
2019-05-06T08:56:22.042Z,13.03
2019-05-06T08:58:49.434Z,12.80
2019-05-06T09:01:45.141Z,12.33
2019-05-06T09:04:15.917Z,11.03
2019-05-06T09:06:43.143Z,12.43
2019-05-06T09:09:12.779Z,13.87
2019-05-06T09:11:40.044Z,11.20
2019-05-06T09:14:09.846Z,13.23
2019-05-06T09:16:36.975Z,15.57
2019-05-06T09:19:04.713Z,14.03
2019-05-06T09:21:33.566Z,11.23
2019-05-06T09:24:02.236Z,11.23
2019-05-06T09:26:37.520Z,10.13
2019-05-06T09:29:10.047Z,11.73
2019-05-06T09:31:56.880Z,11.87
2019-05-06T09:34:36.121Z,9.63
2019-05-06T09:37:17.441Z,10.00
2019-05-06T09:39:45.069Z,9.40
2019-05-06T09:42:12.930Z,12.67
2019-05-06T09:44:42.756Z,12.43
2019-05-06T09:47:14.228Z,9.47
2019-05-06T09:49:42.571Z,9.87
2019-05-06T09:52:12.788Z,9.23
2019-05-06T09:54:53.728Z,12.50
2019-05-06T09:57:27.567Z,9.53
2019-05-06T09:59:54.984Z,9.60
2019-05-06T10:02:23.047Z,11.30
2019-05-06T10:04:52.287Z,10.90
2019-05-06T10:07:19.649Z,13.60
2019-05-06T10:09:46.886Z,12.77
2019-05-06T10:12:14.439Z,18.93
2019-05-06T10:14:43.364Z,12.23
2019-05-06T10:17:13.017Z,13.47
2019-05-06T10:19:40.208Z,13.80
2019-05-06T10:22:07.544Z,15.80
2019-05-06T10:24:34.854Z,19.73
2019-05-06T10:27:02.598Z,14.20
2019-05-06T10:29:35.298Z,16.83
2019-05-06T10:32:26.271Z,16.07
2019-05-06T10:34:53.613Z,11.93
2019-05-06T10:37:33.335Z,11.97
2019-05-06T10:40:13.369Z,15.30
2019-05-06T10:42:47.573Z,11.97
2019-05-06T10:45:28.558Z,13.33
2019-05-06T10:47:56.378Z,16.03
2019-05-06T10:50:23.851Z,11.97
2019-05-06T10:53:09.294Z,15.13
2019-05-06T10:55:38.174Z,16.90
2019-05-06T10:58:05.420Z,16.37
2019-05-06T11:00:33.372Z,16.97
2019-05-06T11:03:22.430Z,11.53
2019-05-06T11:05:49.760Z,12.87
2019-05-06T11:08:17.216Z,13.97
2019-05-06T11:10:45.596Z,13.23
2019-05-06T11:13:13.400Z,12.83
2019-05-06T11:15:43.138Z,14.90
2019-05-06T11:18:09.888Z,13.17
2019-05-06T11:20:37.226Z,13.20
2019-05-06T11:23:04.584Z,12.47
2019-05-06T11:25:32.380Z,10.43
2019-05-06T11:27:59.782Z,13.10
2019-05-06T11:30:44.828Z,17.50
2019-05-06T11:33:35.216Z,13.70
2019-05-06T11:36:07.698Z,15.30
2019-05-06T11:38:35.029Z,16.77
2019-05-06T11:41:02.365Z,11.40
2019-05-06T11:43:29.734Z,12.07
2019-05-06T11:45:57.095Z,11.10
2019-05-06T11:48:24.337Z,9.37
2019-05-06T11:50:54.844Z,10.60
2019-05-06T11:53:23.153Z,10.53
2019-05-06T11:55:54.472Z,10.67
2019-05-06T11:58:43.161Z,10.43
2019-05-06T12:01:16.216Z,11.33
2019-05-06T12:03:43.425Z,14.50
2019-05-06T12:06:13.021Z,14.63
2019-05-06T12:08:40.009Z,10.97
2019-05-06T12:11:07.248Z,15.97
2019-05-06T12:13:37.996Z,10.00
2019-05-06T12:16:03.805Z,13.40
2019-05-06T12:18:31.247Z,11.43
2019-05-06T12:21:08.161Z,15.73
2019-05-06T12:23:28.080Z,12.73
2019-05-06T12:25:55.503Z,9.83
2019-05-06T12:28:22.825Z,13.30
2019-05-06T12:30:52.265Z,9.67
2019-05-06T12:33:38.834Z,12.43
2019-05-06T12:36:32.840Z,12.90
2019-05-06T12:39:19.892Z,10.53
2019-05-06T12:42:05.572Z,12.97
2019-05-06T12:44:34.321Z,11.37
2019-05-06T12:47:09.245Z,7.93
2019-05-06T12:49:36.668Z,10.50
2019-05-06T12:52:04.099Z,8.90
2019-05-06T12:54:33.541Z,10.07
2019-05-06T12:57:03.371Z,8.33
2019-05-06T12:59:30.029Z,9.07
2019-05-06T13:01:57.380Z,10.57
2019-05-06T13:04:43.724Z,8.87
2019-05-06T13:06:54.489Z,11.90
2019-05-06T13:09:22.608Z,11.60
2019-05-06T13:11:52.214Z,12.27
2019-05-06T13:14:19.274Z,12.87
2019-05-06T13:16:46.663Z,9.67
2019-05-06T13:19:16.424Z,12.53
2019-05-06T13:21:43.296Z,9.60
2019-05-06T13:24:12.119Z,10.57
2019-05-06T13:26:39.768Z,11.20
2019-05-06T13:29:13.582Z,10.60
2019-05-06T13:31:43.181Z,10.40
2019-05-06T13:34:14.996Z,12.60
2019-05-06T13:36:42.993Z,9.37
2019-05-06T13:39:14.756Z,14.33
2019-05-06T13:41:41.964Z,9.63
2019-05-06T13:44:13.060Z,12.53
2019-05-06T13:46:45.258Z,13.47
2019-05-06T13:49:26.402Z,13.60
2019-05-06T13:52:06.949Z,10.37
2019-05-06T13:54:34.413Z,11.23
2019-05-06T13:57:02.978Z,13.30
2019-05-06T13:59:30.888Z,13.43
2019-05-06T14:02:17.885Z,11.87
2019-05-06T14:04:45.242Z,12.07
2019-05-06T14:07:13.175Z,10.70
2019-05-06T14:09:43.476Z,14.37
2019-05-06T14:12:09.908Z,11.93
2019-05-06T14:14:37.410Z,15.70
2019-05-06T14:17:04.881Z,14.80
2019-05-06T14:19:33.238Z,14.67
2019-05-06T14:22:02.914Z,11.47
2019-05-06T14:24:32.601Z,10.67
2019-05-06T14:27:03.254Z,12.07
2019-05-06T14:29:38.244Z,14.03
2019-05-06T14:32:05.632Z,15.57
2019-05-06T14:34:32.925Z,9.20
2019-05-06T14:37:00.691Z,10.77
2019-05-06T14:39:49.157Z,13.70
2019-05-06T14:42:03.914Z,12.10
2019-05-06T14:44:32.504Z,11.47
2019-05-06T14:47:06.705Z,13.40
2019-05-06T14:49:36.910Z,10.03
2019-05-06T14:52:04.306Z,11.20
2019-05-06T14:54:33.183Z,9.77
2019-05-06T14:57:08.207Z,9.93
2019-05-06T14:59:36.372Z,11.20
2019-05-06T15:02:03.832Z,12.97
2019-05-06T15:04:32.493Z,14.27
2019-05-06T15:07:02.165Z,12.90
2019-05-06T15:09:29.425Z,9.20
2019-05-06T15:11:56.696Z,12.13
2019-05-06T15:14:23.983Z,14.23
2019-05-06T15:16:52.782Z,10.57
2019-05-06T15:19:22.585Z,12.63
2019-05-06T15:21:49.535Z,8.43
2019-05-06T15:24:16.946Z,12.47
2019-05-06T15:26:44.394Z,9.73
2019-05-06T15:29:12.699Z,15.63
2019-05-06T15:32:02.777Z,14.17
2019-05-06T15:34:42.148Z,13.80
2019-05-06T15:37:15.626Z,16.20
2019-05-06T15:39:43.772Z,15.57
2019-05-06T15:42:12.813Z,12.87
2019-05-06T15:44:42.438Z,10.70
2019-05-06T15:47:09.698Z,9.20
2019-05-06T15:49:37.024Z,8.77
2019-05-06T15:52:04.394Z,10.27
2019-05-06T15:54:32.226Z,12.07
2019-05-06T15:56:59.705Z,14.70
2019-05-06T15:59:27.088Z,10.53
2019-05-06T16:01:54.424Z,17.30
2019-05-06T16:04:22.940Z,16.97
2019-05-06T16:06:52.707Z,11.07
2019-05-06T16:09:19.564Z,15.60
2019-05-06T16:11:46.921Z,14.27
2019-05-06T16:14:14.133Z,15.67
2019-05-06T16:16:42.963Z,16.70
2019-05-06T16:19:12.797Z,16.93
2019-05-06T16:21:43.001Z,15.20
2019-05-06T16:24:14.577Z,19.07
2019-05-06T16:26:42.534Z,15.50
2019-05-06T16:29:13.036Z,14.23
2019-05-06T16:31:42.273Z,14.27
2019-05-06T16:34:12.053Z,18.20
2019-05-06T16:36:39.045Z,18.93
2019-05-06T16:39:07.261Z,17.23
2019-05-06T16:41:34.765Z,17.40
2019-05-06T16:44:02.257Z,19.60
2019-05-06T16:46:33.974Z,16.10
2019-05-06T16:48:58.978Z,11.27
2019-05-06T16:51:26.359Z,11.73
2019-05-06T16:53:53.696Z,12.93
2019-05-06T16:56:27.285Z,13.43
2019-05-06T16:58:57.217Z,14.67
2019-05-06T17:01:24.687Z,14.03
2019-05-06T17:04:03.143Z,21.20
2019-05-06T17:06:33.391Z,13.30
2019-05-06T17:09:16.837Z,18.20
2019-05-06T17:11:34.028Z,16.70
2019-05-06T17:13:59.405Z,15.80
2019-05-06T17:16:26.787Z,16.53
2019-05-06T17:18:56.630Z,20.60
2019-05-06T17:21:23.447Z,26.10
2019-05-06T17:23:52.221Z,17.23
2019-05-06T17:26:19.881Z,16.13
2019-05-06T17:29:15.767Z,14.97
2019-05-06T17:32:02.556Z,13.13
2019-05-06T17:34:35.587Z,16.10
2019-05-06T17:37:12.594Z,18.47
2019-05-06T17:39:40.071Z,19.83
2019-05-06T17:42:07.457Z,18.23
2019-05-06T17:44:34.712Z,16.90
2019-05-06T17:47:12.182Z,14.53
2019-05-06T17:49:39.708Z,14.37
2019-05-06T17:52:11.478Z,15.70
2019-05-06T17:54:40.170Z,19.37
2019-05-06T17:57:07.530Z,16.83
2019-05-06T17:59:37.518Z,13.90
2019-05-06T18:02:07.887Z,15.00
2019-05-06T18:04:35.219Z,13.67
2019-05-06T18:07:02.687Z,14.23
2019-05-06T18:09:30.051Z,16.13
2019-05-06T18:11:59.419Z,16.20
2019-05-06T18:14:27.128Z,15.73
2019-05-06T18:16:54.480Z,15.60
2019-05-06T18:19:22.338Z,13.93
2019-05-06T18:21:49.915Z,15.70
2019-05-06T18:24:17.411Z,20.27
2019-05-06T18:26:44.821Z,17.07
2019-05-06T18:29:12.679Z,13.90
2019-05-06T18:31:42.488Z,13.40
2019-05-06T18:34:09.459Z,16.30
2019-05-06T18:36:36.952Z,16.93
2019-05-06T18:39:05.960Z,13.50
2019-05-06T18:41:33.369Z,14.20
2019-05-06T18:44:00.739Z,15.07
2019-05-06T18:46:28.075Z,17.43
2019-05-06T18:48:55.460Z,15.53
2019-05-06T18:51:22.921Z,12.47
2019-05-06T18:53:52.416Z,13.03
2019-05-06T18:56:19.683Z,16.73
2019-05-06T18:58:47.145Z,19.00
2019-05-06T19:01:14.515Z,14.10
2019-05-06T19:04:03.441Z,11.13
2019-05-06T19:06:32.721Z,12.83
2019-05-06T19:09:17.615Z,13.20
2019-05-06T19:11:45.093Z,11.83
2019-05-06T19:14:12.732Z,15.20
2019-05-06T19:16:49.753Z,17.60
2019-05-06T19:19:09.627Z,13.37
2019-05-06T19:21:37.283Z,11.97
2019-05-06T19:24:04.721Z,15.00
2019-05-06T19:26:32.699Z,12.60
2019-05-06T19:29:00.209Z,12.40
2019-05-06T19:31:27.601Z,13.93
2019-05-06T19:33:55.025Z,15.27
2019-05-06T19:36:23.566Z,15.83
2019-05-06T19:38:51.228Z,15.63
2019-05-06T19:41:18.677Z,16.07
2019-05-06T19:43:46.501Z,10.17
2019-05-06T19:46:14.039Z,17.13
2019-05-06T19:48:43.173Z,12.90
2019-05-06T19:51:10.828Z,13.93
2019-05-06T19:53:38.412Z,12.80
2019-05-06T19:56:05.804Z,12.67
2019-05-06T19:58:34.015Z,13.63
2019-05-06T20:01:02.372Z,18.40
2019-05-06T20:03:29.924Z,14.67
2019-05-06T20:06:09.771Z,13.90
2019-05-06T20:08:48.477Z,16.63
2019-05-06T20:11:25.016Z,11.93
2019-05-06T20:13:52.648Z,14.20
2019-05-06T20:16:20.330Z,12.77
2019-05-06T20:18:47.718Z,15.93
2019-05-06T20:21:15.486Z,17.30
2019-05-06T20:23:42.718Z,14.63
2019-05-06T20:26:12.288Z,11.23
2019-05-06T20:28:39.346Z,11.97
2019-05-06T20:31:06.748Z,12.63
2019-05-06T20:33:34.001Z,14.63
2019-05-06T20:36:01.383Z,13.00
2019-05-06T20:38:28.890Z,12.57
2019-05-06T20:40:56.288Z,14.10
2019-05-06T20:43:24.096Z,14.57
2019-05-06T20:45:52.203Z,15.07
2019-05-06T20:48:19.692Z,17.73
2019-05-06T20:50:47.025Z,16.93
2019-05-06T20:53:14.373Z,18.37
2019-05-06T20:55:43.357Z,18.50
2019-05-06T20:58:12.210Z,18.13
2019-05-06T21:00:39.823Z,17.27
2019-05-06T21:03:07.269Z,19.50
2019-05-06T21:05:34.633Z,20.73
2019-05-06T21:08:02.296Z,22.10
2019-05-06T21:10:29.818Z,23.17
2019-05-06T21:12:57.203Z,21.27
2019-05-06T21:15:24.619Z,19.50
2019-05-06T21:17:51.990Z,21.87
2019-05-06T21:20:19.433Z,20.07
2019-05-06T21:22:49.031Z,18.53
2019-05-06T21:25:15.960Z,24.60
2019-05-06T21:27:43.269Z,20.37
2019-05-06T21:30:13.078Z,15.00
2019-05-06T21:32:42.763Z,21.00
2019-05-06T21:35:12.445Z,18.53
2019-05-06T21:37:39.445Z,21.60
2019-05-06T21:40:06.973Z,20.63
2019-05-06T21:42:34.209Z,15.73
2019-05-06T21:45:03.240Z,18.53
2019-05-06T21:47:32.171Z,17.17
2019-05-06T21:49:59.793Z,20.63
2019-05-06T21:52:36.372Z,19.43
2019-05-06T21:54:56.452Z,17.50
2019-05-06T21:57:23.851Z,18.87
2019-05-06T21:59:52.538Z,18.43
2019-05-06T22:02:22.897Z,17.90
2019-05-06T22:04:52.276Z,16.50
2019-05-06T22:07:19.935Z,19.90
2019-05-06T22:09:47.381Z,19.00
2019-05-06T22:12:14.731Z,17.40
2019-05-06T22:14:42.341Z,21.50
2019-05-06T22:17:09.769Z,17.07
2019-05-06T22:19:37.120Z,20.43
2019-05-06T22:22:06.380Z,17.97
2019-05-06T22:24:46.642Z,23.30
2019-05-06T22:27:14.365Z,21.17
2019-05-06T22:29:42.691Z,17.73
2019-05-06T22:32:11.894Z,17.43
2019-05-06T22:34:39.594Z,18.13
2019-05-06T22:37:07.038Z,18.43
2019-05-06T22:39:34.394Z,17.27
2019-05-06T22:42:01.754Z,17.27
2019-05-06T22:44:29.112Z,18.83
2019-05-06T22:46:56.536Z,16.60
2019-05-06T22:49:23.822Z,16.87
2019-05-06T22:51:52.170Z,18.30
2019-05-06T22:54:19.656Z,18.40
2019-05-06T22:56:47.107Z,18.30
2019-05-06T22:59:14.480Z,17.57
2019-05-06T23:02:13.001Z,17.80
2019-05-06T23:04:42.991Z,19.63
2019-05-06T23:07:10.068Z,23.30
2019-05-06T23:09:37.418Z,18.23
2019-05-06T23:12:04.925Z,19.87
2019-05-06T23:14:36.927Z,22.00
2019-05-06T23:17:02.890Z,21.60
2019-05-06T23:19:31.837Z,21.27
2019-05-06T23:21:59.332Z,19.10
2019-05-06T23:24:26.656Z,19.50
2019-05-06T23:26:54.832Z,20.33
2019-05-06T23:29:22.506Z,22.83
2019-05-06T23:31:51.999Z,18.80
2019-05-06T23:34:19.110Z,24.77
2019-05-06T23:37:24.132Z,22.57
2019-05-06T23:40:33.029Z,20.10
2019-05-06T23:43:36.404Z,20.23
2019-05-06T23:46:40.058Z,20.73
2019-05-06T23:49:43.927Z,17.63
2019-05-06T23:52:47.384Z,20.30
2019-05-06T23:55:51.928Z,19.90
2019-05-06T23:58:18.468Z,20.73
